Time;durP1;ratioP1;P1;durP2;ratioP2;P2;SDS_P1;SDS_P2;PMS_P1;PMS_P2;Temp;Humidity;BMP_temperature;BMP_pressure;BME280_temperature;BME280_humidity;BME280_pressure;Samples;Min_cycle;Max_cycle;Signal;HPM_P1;HPM_P2
2022/12/09 00:02:11;;;;;;;2.15;1.88;;;14.00;66.00;;;;;;5105498;28;20060;-69
2022/12/09 00:04:37;;;;;;;2.10;1.90;;;14.00;66.00;;;;;;5123750;28;20015;-70
2022/12/09 00:07:03;;;;;;;2.45;1.90;;;14.00;66.10;;;;;;5139629;27;20211;-70
2022/12/09 00:09:29;;;;;;;2.00;1.63;;;14.00;66.20;;;;;;5123491;28;20062;-70
2022/12/09 00:11:54;;;;;;;2.47;1.95;;;14.00;66.40;;;;;;5123645;28;20024;-70
2022/12/09 00:14:20;;;;;;;2.03;1.80;;;14.00;66.40;;;;;;5123529;28;20024;-69
2022/12/09 00:16:46;;;;;;;1.83;1.67;;;14.00;66.40;;;;;;5123519;28;20084;-70
2022/12/09 00:19:13;;;;;;;2.05;1.60;;;14.00;66.40;;;;;;5123441;28;20249;-69
2022/12/09 00:21:41;;;;;;;1.95;1.67;;;14.00;66.40;;;;;;5123301;28;20102;-69
2022/12/09 00:24:10;;;;;;;2.13;1.92;;;14.00;66.40;;;;;;5123369;28;20019;-70
2022/12/09 00:26:36;;;;;;;2.13;1.75;;;13.90;66.40;;;;;;5123285;28;20177;-69
2022/12/09 00:29:02;;;;;;;2.15;1.50;;;14.00;66.50;;;;;;5122996;28;20071;-69
2022/12/09 00:31:31;;;;;;;1.70;1.60;;;14.00;66.40;;;;;;5123201;28;20250;-69
2022/12/09 00:33:59;;;;;;;2.00;1.67;;;14.00;66.20;;;;;;5104982;28;20211;-69
2022/12/09 00:36:26;;;;;;;1.88;1.58;;;14.10;66.30;;;;;;5123208;28;20024;-70
2022/12/09 00:38:54;;;;;;;2.05;1.65;;;14.00;66.20;;;;;;5123026;28;20044;-70
2022/12/09 00:41:20;;;;;;;2.20;1.95;;;14.00;66.20;;;;;;5123040;28;20476;-69
2022/12/09 00:43:46;;;;;;;2.20;2.00;;;14.00;66.30;;;;;;5123044;28;20024;-69
2022/12/09 00:46:13;;;;;;;3.05;2.13;;;14.10;66.20;;;;;;5122980;28;20317;-69
2022/12/09 00:48:39;;;;;;;2.97;2.10;;;14.00;66.10;;;;;;5122892;28;20327;-69
2022/12/09 00:51:07;;;;;;;2.55;2.17;;;14.00;66.10;;;;;;5122985;28;20027;-70
2022/12/09 00:53:33;;;;;;;2.80;1.88;;;14.00;66.10;;;;;;5122913;28;20030;-70
2022/12/09 00:55:59;;;;;;;2.22;1.85;;;14.00;66.10;;;;;;5122886;28;20311;-70
2022/12/09 00:58:25;;;;;;;2.30;1.95;;;14.00;66.10;;;;;;5122795;28;20023;-70
2022/12/09 01:00:52;;;;;;;2.75;2.03;;;14.00;66.00;;;;;;5122740;28;20090;-70
2022/12/09 01:03:19;;;;;;;2.70;2.30;;;14.00;66.00;;;;;;5122690;28;20019;-69
2022/12/09 01:05:45;;;;;;;1.55;1.45;;;14.10;66.00;;;;;;5122279;28;20011;-70
2022/12/09 01:08:12;;;;;;;2.97;2.38;;;14.10;66.00;;;;;;5122847;28;20104;-70
2022/12/09 01:10:40;;;;;;;2.22;1.98;;;14.10;66.10;;;;;;5122514;28;20063;-70
2022/12/09 01:13:06;;;;;;;2.15;1.90;;;14.00;66.00;;;;;;5122617;28;20031;-69
2022/12/09 01:15:32;;;;;;;1.80;1.67;;;14.00;66.20;;;;;;5122561;28;20015;-69
2022/12/09 01:17:58;;;;;;;2.10;1.60;;;14.00;66.30;;;;;;5122482;28;20235;-71
2022/12/09 01:20:24;;;;;;;1.70;1.60;;;14.00;66.40;;;;;;5122388;28;20372;-69
2022/12/09 01:22:50;;;;;;;1.90;1.70;;;14.00;66.40;;;;;;5122402;28;20015;-69
2022/12/09 01:25:16;;;;;;;1.90;1.80;;;14.00;66.40;;;;;;5122459;28;20106;-69
2022/12/09 01:27:41;;;;;;;2.15;1.83;;;14.00;66.50;;;;;;5122358;28;20038;-69
2022/12/09 01:30:09;;;;;;;2.45;2.22;;;14.00;66.40;;;;;;5122300;28;20076;-69
2022/12/09 01:32:35;;;;;;;2.13;1.67;;;14.00;66.40;;;;;;5122386;28;20040;-69
2022/12/09 01:35:03;;;;;;;2.53;2.03;;;14.00;66.40;;;;;;5122248;28;20263;-69
2022/12/09 01:37:31;;;;;;;2.22;1.90;;;14.00;66.50;;;;;;5122281;28;20039;-69
2022/12/09 01:39:56;;;;;;;2.05;1.83;;;14.00;66.50;;;;;;5122294;28;20058;-70
2022/12/09 01:42:24;;;;;;;2.47;2.05;;;14.00;66.30;;;;;;5126347;28;20027;-70
2022/12/09 01:45:21;;;;;;;2.08;1.88;;;14.00;66.20;;;;;;5126585;28;20015;-69
2022/12/09 01:47:47;;;;;;;2.08;1.77;;;14.00;66.10;;;;;;5126488;28;20219;-70
2022/12/09 01:50:14;;;;;;;2.10;1.60;;;14.00;66.20;;;;;;5126458;28;20030;-69
2022/12/09 01:52:40;;;;;;;2.30;1.90;;;14.00;66.20;;;;;;5108154;28;20015;-69
2022/12/09 01:55:06;;;;;;;2.95;1.88;;;14.00;66.10;;;;;;5126399;28;20023;-69
2022/12/09 01:57:33;;;;;;;2.92;2.15;;;14.00;66.10;;;;;;5126254;28;20354;-69
2022/12/09 01:59:59;;;;;;;3.38;2.45;;;14.00;66.10;;;;;;5126256;28;20023;-69
2022/12/09 02:02:31;;;;;;;2.90;2.35;;;14.00;66.00;;;;;;5126213;28;20015;-69
2022/12/09 02:04:57;;;;;;;3.00;2.13;;;14.10;66.00;;;;;;5126223;28;20024;-69
2022/12/09 02:07:23;;;;;;;2.83;2.35;;;14.00;65.90;;;;;;5107883;28;20023;-69
2022/12/09 02:09:51;;;;;;;2.30;1.88;;;14.10;65.90;;;;;;5126021;28;20335;-69
2022/12/09 02:12:40;;;;;;;4.05;3.00;;;14.10;65.90;;;;;;5126140;28;20255;-69
2022/12/09 02:15:24;;;;;;;2.95;2.40;;;14.10;65.80;;;;;;5115215;28;20088;-69
2022/12/09 02:17:58;;;;;;;3.05;2.53;;;14.10;65.90;;;;;;5125999;28;20054;-70
2022/12/09 02:20:31;;;;;;;1.95;1.70;;;14.00;66.00;;;;;;5125823;28;20015;-70
2022/12/09 02:23:18;;;;;;;3.08;2.00;;;14.00;66.10;;;;;;5125862;28;20011;-70
2022/12/09 02:25:51;;;;;;;2.35;2.03;;;14.00;66.10;;;;;;5125903;28;20023;-69
2022/12/09 02:28:44;;;;;;;2.13;1.90;;;14.00;66.30;;;;;;5125828;28;20114;-69
2022/12/09 02:31:16;;;;;;;3.20;2.20;;;13.90;67.00;;;;;;5125695;28;20277;-70
2022/12/09 02:34:04;;;;;;;2.63;2.20;;;14.00;66.50;;;;;;5125617;28;20023;-70
2022/12/09 02:36:40;;;;;;;2.17;1.90;;;14.00;66.40;;;;;;5125597;28;20090;-69
2022/12/09 02:39:08;;;;;;;2.65;1.85;;;14.00;66.50;;;;;;5125623;28;20018;-69
2022/12/09 02:41:36;;;;;;;1.95;1.75;;;14.00;66.40;;;;;;5125394;28;20027;-70
2022/12/09 02:44:14;;;;;;;2.10;1.80;;;14.00;66.50;;;;;;5125501;28;20042;-69
2022/12/09 02:46:42;;;;;;;2.00;1.80;;;14.00;66.50;;;;;;5125490;28;20011;-69
2022/12/09 02:49:09;;;;;;;2.53;2.05;;;13.90;66.50;;;;;;5125342;28;20035;-69
2022/12/09 02:51:40;;;;;;;1.70;1.60;;;14.00;67.00;;;;;;5125283;28;20108;-69
2022/12/09 02:54:14;;;;;;;2.22;2.03;;;14.00;66.30;;;;;;5125280;28;20026;-70
2022/12/09 02:56:44;;;;;;;2.70;2.08;;;14.00;66.20;;;;;;5125253;28;20069;-70
2022/12/09 02:59:10;;;;;;;2.65;1.85;;;14.00;66.20;;;;;;5125235;28;20203;-69
2022/12/09 03:01:44;;;;;;;3.05;2.10;;;14.00;66.20;;;;;;5124988;28;20030;-69
2022/12/09 03:04:19;;;;;;;2.63;2.10;;;14.00;66.10;;;;;;5125049;28;20020;-70
2022/12/09 03:06:51;;;;;;;2.72;1.90;;;14.00;66.10;;;;;;5125079;28;20016;-70
2022/12/09 03:09:33;;;;;;;2.28;2.00;;;14.00;66.10;;;;;;5106532;28;20232;-69
2022/12/09 03:12:05;;;;;;;2.45;1.90;;;14.00;66.10;;;;;;5124943;28;20027;-71
2022/12/09 03:14:38;;;;;;;2.85;2.30;;;14.00;66.00;;;;;;5124890;28;20023;-70
2022/12/09 03:17:34;;;;;;;3.00;2.10;;;14.10;66.00;;;;;;5124860;28;20024;-70
2022/12/09 03:20:05;;;;;;;2.20;1.88;;;14.10;65.90;;;;;;5124727;28;20035;-69
2022/12/09 03:22:34;;;;;;;2.90;2.33;;;14.10;65.90;;;;;;5124727;28;20023;-69
2022/12/09 03:25:25;;;;;;;2.42;2.08;;;14.00;65.90;;;;;;5124632;28;20079;-69
2022/12/09 03:27:59;;;;;;;2.38;1.95;;;14.10;65.90;;;;;;5124650;28;20015;-70
2022/12/09 03:30:25;;;;;;;2.90;2.03;;;14.00;66.00;;;;;;5124585;28;20342;-70
2022/12/09 03:32:53;;;;;;;1.60;1.33;;;14.00;66.10;;;;;;5124512;28;20011;-69
2022/12/09 03:35:28;;;;;;;2.27;1.83;;;14.00;66.20;;;;;;5124614;28;20047;-69
2022/12/09 03:37:55;;;;;;;2.35;1.88;;;14.00;66.40;;;;;;5124461;28;20023;-70
2022/12/09 03:40:27;;;;;;;2.55;1.95;;;13.90;66.40;;;;;;5124294;28;20020;-69
2022/12/09 03:42:59;;;;;;;1.92;1.80;;;13.90;66.40;;;;;;5124345;28;20016;-69
2022/12/09 03:45:26;;;;;;;2.75;2.15;;;13.90;66.50;;;;;;5124404;28;20023;-68
2022/12/09 03:47:52;;;;;;;2.30;1.77;;;14.00;66.50;;;;;;5124210;28;20087;-69
2022/12/09 03:50:26;;;;;;;2.42;2.03;;;14.00;66.50;;;;;;5124166;28;20072;-70
2022/12/09 03:53:07;;;;;;;2.30;1.80;;;14.00;66.50;;;;;;5124235;28;20022;-70
2022/12/09 03:55:49;;;;;;;1.90;1.73;;;14.00;66.50;;;;;;5106078;28;20188;-69
2022/12/09 03:58:16;;;;;;;2.97;2.10;;;14.00;66.30;;;;;;5124059;28;20032;-69
2022/12/09 04:00:43;;;;;;;2.13;1.85;;;14.00;66.30;;;;;;5123874;28;20046;-70
2022/12/09 04:03:12;;;;;;;2.50;1.92;;;14.00;66.20;;;;;;5123364;28;20359;-69
2022/12/09 04:05:38;;;;;;;1.70;1.27;;;14.00;66.20;;;;;;5105606;28;20037;-69
2022/12/09 04:08:04;;;;;;;2.60;1.95;;;14.00;66.20;;;;;;5123827;28;20238;-70
2022/12/09 04:10:30;;;;;;;2.90;2.15;;;14.00;66.20;;;;;;5088301;28;20285;-69
2022/12/09 04:12:55;;;;;;;4.15;2.17;;;14.00;66.20;;;;;;5083088;28;20043;-69
2022/12/09 04:15:21;;;;;;;1.88;1.73;;;14.00;66.20;;;;;;5083044;28;20337;-69
2022/12/09 04:17:47;;;;;;;2.53;2.17;;;14.00;66.10;;;;;;5082969;28;20020;-69
2022/12/09 04:20:13;;;;;;;2.80;2.25;;;14.00;66.10;;;;;;5082881;28;20021;-69
2022/12/09 04:22:39;;;;;;;3.50;2.55;;;14.00;66.10;;;;;;5082950;28;20216;-69
2022/12/09 04:25:05;;;;;;;2.85;2.17;;;14.00;66.00;;;;;;5082869;28;20036;-70
2022/12/09 04:27:31;;;;;;;3.60;2.50;;;14.00;66.00;;;;;;5082832;28;20035;-70
2022/12/09 04:29:56;;;;;;;2.28;2.00;;;14.00;65.90;;;;;;5082779;28;20032;-70
2022/12/09 04:32:22;;;;;;;2.40;2.08;;;14.10;66.00;;;;;;5082714;28;20095;-69
2022/12/09 04:34:51;;;;;;;2.30;1.75;;;14.00;65.90;;;;;;5082647;28;20016;-71
2022/12/09 04:37:17;;;;;;;2.38;2.00;;;14.10;66.00;;;;;;5082658;28;20044;-70
2022/12/09 04:39:42;;;;;;;2.65;2.45;;;14.00;66.00;;;;;;5082535;28;20013;-69
2022/12/09 04:42:08;;;;;;;2.33;2.05;;;14.00;66.10;;;;;;5082444;28;20335;-70
2022/12/09 04:44:34;;;;;;;1.92;1.73;;;14.00;66.30;;;;;;5082478;28;20043;-69
2022/12/09 04:47:00;;;;;;;2.03;1.70;;;14.00;66.40;;;;;;5082420;28;20568;-69
2022/12/09 04:49:26;;;;;;;3.33;2.25;;;14.00;66.40;;;;;;5082407;28;20024;-69
2022/12/09 04:51:52;;;;;;;2.10;1.80;;;14.00;67.00;;;;;;5082426;28;20028;-69
2022/12/09 04:54:17;;;;;;;2.65;1.73;;;14.00;66.50;;;;;;5082326;28;20058;-70
2022/12/09 04:56:43;;;;;;;2.60;2.20;;;13.90;66.40;;;;;;5082317;28;20193;-69
2022/12/09 04:59:09;;;;;;;2.50;1.90;;;14.00;66.40;;;;;;5082203;28;20039;-70
2022/12/09 05:01:35;;;;;;;2.25;2.03;;;14.00;66.30;;;;;;5082206;28;20326;-70
2022/12/09 05:04:01;;;;;;;2.45;2.25;;;14.00;66.40;;;;;;5082204;28;20024;-69
2022/12/09 05:06:27;;;;;;;2.53;2.08;;;14.00;66.30;;;;;;5082226;28;20036;-69
2022/12/09 05:08:53;;;;;;;2.58;2.20;;;14.00;66.30;;;;;;5082459;28;20020;-70
2022/12/09 05:11:20;;;;;;;2.55;2.10;;;14.00;66.20;;;;;;5122702;28;20034;-70
2022/12/09 05:13:46;;;;;;;2.80;1.98;;;14.00;66.10;;;;;;5122658;28;20023;-69
2022/12/09 05:16:13;;;;;;;2.47;2.20;;;14.00;66.10;;;;;;5121846;28;20031;-70
2022/12/09 05:18:40;;;;;;;4.67;2.17;;;14.00;66.10;;;;;;5122693;28;20053;-69
2022/12/09 05:21:11;;;;;;;2.28;2.00;;;14.00;66.10;;;;;;5122521;28;20022;-69
2022/12/09 05:23:37;;;;;;;2.05;1.90;;;14.00;66.00;;;;;;5122667;28;20112;-69
2022/12/09 05:26:05;;;;;;;2.47;2.20;;;14.00;66.00;;;;;;5122478;28;20323;-69
2022/12/09 05:28:31;;;;;;;3.38;2.60;;;14.00;66.00;;;;;;5122551;28;20027;-69
2022/12/09 05:31:06;;;;;;;3.00;2.30;;;14.00;65.90;;;;;;5122461;28;20032;-70
2022/12/09 05:33:32;;;;;;;3.22;2.30;;;14.10;66.00;;;;;;5122475;28;20047;-69
2022/12/09 05:35:59;;;;;;;2.65;2.13;;;14.00;65.90;;;;;;5122351;28;20194;-70
2022/12/09 05:38:25;;;;;;;3.47;2.47;;;14.00;65.90;;;;;;5122356;28;20057;-69
2022/12/09 05:40:51;;;;;;;2.42;2.00;;;14.00;65.80;;;;;;5122255;28;20020;-69
2022/12/09 05:43:17;;;;;;;3.75;2.78;;;14.00;65.80;;;;;;5122358;28;20027;-69
2022/12/09 05:45:44;;;;;;;3.25;2.30;;;14.00;65.80;;;;;;5122398;28;20087;-69
2022/12/09 05:48:10;;;;;;;3.10;2.30;;;14.00;65.90;;;;;;5122307;28;20425;-69
2022/12/09 05:50:35;;;;;;;2.95;2.25;;;14.00;65.90;;;;;;5122215;28;20054;-69
2022/12/09 05:53:02;;;;;;;2.15;1.90;;;14.00;66.00;;;;;;5122205;28;20024;-69
2022/12/09 05:55:27;;;;;;;2.83;2.05;;;14.00;66.10;;;;;;5122231;28;20027;-69
2022/12/09 05:57:53;;;;;;;2.25;2.05;;;14.00;66.30;;;;;;5122143;28;20189;-69
2022/12/09 06:00:21;;;;;;;2.28;1.90;;;14.00;66.40;;;;;;5122079;28;20015;-69
2022/12/09 06:02:47;;;;;;;4.10;2.60;;;14.00;66.50;;;;;;5122100;28;20019;-69
2022/12/09 06:05:13;;;;;;;2.42;2.00;;;13.90;66.50;;;;;;5122149;28;20611;-70
2022/12/09 06:07:39;;;;;;;2.50;2.28;;;13.90;66.60;;;;;;5122029;28;20028;-70
2022/12/09 06:10:05;;;;;;;2.45;2.00;;;14.00;66.50;;;;;;5121907;28;20146;-69
2022/12/09 06:12:31;;;;;;;2.28;2.08;;;13.90;66.40;;;;;;5121931;28;20011;-69
2022/12/09 06:14:57;;;;;;;2.25;1.98;;;14.00;66.50;;;;;;5121970;28;20031;-67
2022/12/09 06:17:22;;;;;;;2.03;1.88;;;14.00;66.40;;;;;;5121986;28;20027;-69
2022/12/09 06:19:48;;;;;;;2.88;1.98;;;14.00;66.30;;;;;;5121949;28;20045;-69
2022/12/09 06:22:14;;;;;;;2.13;1.80;;;14.00;66.30;;;;;;5121889;28;20184;-69
2022/12/09 06:24:40;;;;;;;2.20;1.98;;;14.00;66.20;;;;;;5121926;28;20049;-70
2022/12/09 06:27:06;;;;;;;3.55;2.90;;;14.00;66.10;;;;;;5123460;28;20023;-69
2022/12/09 06:29:31;;;;;;;2.47;2.25;;;14.00;66.10;;;;;;5125840;28;20323;-69
2022/12/09 06:31:57;;;;;;;3.60;2.63;;;14.00;66.10;;;;;;5125728;28;20019;-69
2022/12/09 06:34:23;;;;;;;3.78;2.60;;;14.00;66.10;;;;;;5125669;28;20068;-69
2022/12/09 06:36:49;;;;;;;3.58;2.30;;;14.00;66.10;;;;;;5125583;28;20039;-69
2022/12/09 06:39:15;;;;;;;3.35;2.40;;;14.00;66.10;;;;;;5125563;28;20015;-69
2022/12/09 06:41:41;;;;;;;2.75;2.38;;;14.00;66.60;;;;;;5125501;28;20024;-69
2022/12/09 06:44:08;;;;;;;3.30;2.80;;;14.00;66.00;;;;;;5125552;28;20016;-70
2022/12/09 06:46:34;;;;;;;3.25;2.25;;;14.00;65.80;;;;;;5125385;28;20219;-69
2022/12/09 06:49:00;;;;;;;2.67;2.28;;;14.00;65.70;;;;;;5125420;28;20034;-70
2022/12/09 06:51:25;;;;;;;3.38;2.53;;;14.10;65.80;;;;;;5125378;28;20023;-69
2022/12/09 06:53:52;;;;;;;3.20;2.35;;;14.10;65.80;;;;;;5107004;28;20125;-69
2022/12/09 06:56:17;;;;;;;3.70;2.72;;;14.10;66.50;;;;;;5125277;28;20049;-70
2022/12/09 06:58:45;;;;;;;3.67;2.47;;;14.00;65.90;;;;;;5125214;28;20035;-70
2022/12/09 07:01:20;;;;;;;2.60;2.17;;;14.00;65.90;;;;;;5125050;28;20246;-69
2022/12/09 07:03:48;;;;;;;4.30;2.60;;;14.00;66.00;;;;;;5125133;28;20039;-69
2022/12/09 07:06:41;;;;;;;2.47;2.10;;;14.00;66.20;;;;;;5125030;28;20042;-70
2022/12/09 07:09:13;;;;;;;2.47;2.08;;;13.90;66.20;;;;;;5103685;28;20432;-70
2022/12/09 07:11:41;;;;;;;3.00;2.30;;;14.00;66.30;;;;;;5125039;28;20079;-69
2022/12/09 07:14:07;;;;;;;3.85;2.65;;;14.00;66.40;;;;;;5124839;28;20020;-69
2022/12/09 07:16:34;;;;;;;2.25;1.90;;;13.90;66.40;;;;;;5124925;28;20015;-70
2022/12/09 07:19:01;;;;;;;3.85;2.60;;;14.00;66.40;;;;;;5124807;28;20051;-69
2022/12/09 07:21:27;;;;;;;2.95;2.20;;;13.90;66.30;;;;;;5124652;28;20031;-70
2022/12/09 07:23:53;;;;;;;3.05;2.30;;;14.00;66.30;;;;;;5124701;28;20317;-70
2022/12/09 07:26:19;;;;;;;2.85;2.25;;;14.00;66.20;;;;;;5106357;28;20015;-70
2022/12/09 07:28:46;;;;;;;2.40;2.20;;;14.00;66.10;;;;;;5124581;28;20060;-69
2022/12/09 07:31:26;;;;;;;3.35;2.13;;;14.00;66.10;;;;;;5106342;28;20424;-69
2022/12/09 07:33:54;;;;;;;2.90;2.33;;;14.00;66.00;;;;;;5124553;28;20023;-69
2022/12/09 07:36:21;;;;;;;2.60;2.10;;;14.00;66.00;;;;;;5124447;28;20111;-69
2022/12/09 07:38:48;;;;;;;3.15;2.10;;;14.00;65.90;;;;;;5123514;28;20029;-67
2022/12/09 07:41:17;;;;;;;3.40;2.33;;;14.00;66.10;;;;;;5124321;28;20016;-67
2022/12/09 07:43:44;;;;;;;2.63;2.15;;;14.00;66.00;;;;;;5124308;28;20022;-70
2022/12/09 07:46:11;;;;;;;2.47;2.28;;;14.10;66.10;;;;;;5124277;28;20034;-69
2022/12/09 07:48:37;;;;;;;3.63;2.40;;;14.00;66.00;;;;;;5124272;28;20020;-69
2022/12/09 07:51:04;;;;;;;4.03;2.63;;;14.10;66.00;;;;;;5124220;28;20319;-70
2022/12/09 07:53:32;;;;;;;2.53;2.22;;;14.10;66.00;;;;;;5124084;28;20038;-69
2022/12/09 07:56:07;;;;;;;4.13;2.30;;;14.10;66.00;;;;;;5124176;28;20019;-70
2022/12/09 07:58:34;;;;;;;3.03;2.40;;;14.10;65.90;;;;;;5124155;28;20207;-69
2022/12/09 08:01:17;;;;;;;3.28;2.67;;;14.10;65.90;;;;;;5123872;28;20027;-69
2022/12/09 08:03:44;;;;;;;4.10;2.53;;;14.10;65.90;;;;;;5123951;28;20038;-70
2022/12/09 08:06:15;;;;;;;3.58;2.90;;;14.10;65.90;;;;;;5105739;28;20016;-70
2022/12/09 08:08:42;;;;;;;2.80;2.15;;;14.10;65.90;;;;;;5105566;28;20249;-69
2022/12/09 08:11:18;;;;;;;3.03;2.35;;;14.10;66.00;;;;;;5083270;28;20045;-69
2022/12/09 08:13:44;;;;;;;2.80;2.50;;;14.10;66.00;;;;;;5083177;28;20028;-69
2022/12/09 08:16:13;;;;;;;2.60;2.25;;;14.10;66.00;;;;;;5082974;28;20082;-70
2022/12/09 08:18:39;;;;;;;2.85;2.38;;;14.00;66.10;;;;;;5083055;28;20025;-69
2022/12/09 08:21:11;;;;;;;2.88;2.40;;;14.00;66.20;;;;;;5082816;28;20051;-69
2022/12/09 08:23:37;;;;;;;2.45;2.20;;;14.00;66.20;;;;;;5082848;28;20035;-69
2022/12/09 08:26:04;;;;;;;3.17;2.28;;;14.00;66.30;;;;;;5082855;28;20237;-69
2022/12/09 08:28:31;;;;;;;2.67;2.33;;;14.00;66.30;;;;;;5082819;28;20300;-70
2022/12/09 08:30:57;;;;;;;3.00;2.47;;;14.00;66.20;;;;;;5081507;28;20095;-69
2022/12/09 08:33:23;;;;;;;3.67;2.38;;;14.00;66.20;;;;;;5082664;28;20092;-69
2022/12/09 08:35:49;;;;;;;3.55;2.53;;;14.00;66.10;;;;;;5082641;28;20016;-69
2022/12/09 08:38:14;;;;;;;3.35;2.30;;;14.00;66.30;;;;;;5082638;28;20327;-70
2022/12/09 08:40:40;;;;;;;2.35;2.13;;;14.00;66.20;;;;;;5082512;28;20507;-69
2022/12/09 08:43:07;;;;;;;3.35;2.70;;;14.00;66.10;;;;;;5082530;28;20038;-69
2022/12/09 08:45:38;;;;;;;2.50;2.25;;;14.00;66.00;;;;;;5082503;28;20012;-71
2022/12/09 08:48:05;;;;;;;2.75;2.47;;;14.00;65.90;;;;;;5082384;28;20021;-69
2022/12/09 08:50:31;;;;;;;2.55;2.15;;;14.10;65.90;;;;;;5082171;28;20238;-69
2022/12/09 08:52:57;;;;;;;2.53;2.13;;;14.10;65.90;;;;;;5082328;28;20028;-71
2022/12/09 08:55:23;;;;;;;3.10;2.20;;;14.10;65.90;;;;;;5082300;28;20122;-69
2022/12/09 08:57:49;;;;;;;3.03;2.40;;;14.10;65.90;;;;;;5082311;28;20355;-69
2022/12/09 09:00:15;;;;;;;3.58;2.97;;;14.10;65.90;;;;;;5082233;28;20012;-69
2022/12/09 09:02:41;;;;;;;3.20;2.45;;;14.10;65.80;;;;;;5082152;28;20017;-68
2022/12/09 09:05:07;;;;;;;3.13;2.30;;;14.10;65.80;;;;;;5082079;28;20047;-69
2022/12/09 09:07:32;;;;;;;3.17;2.63;;;14.10;65.80;;;;;;5082139;28;20410;-69
2022/12/09 09:09:59;;;;;;;3.17;2.40;;;14.10;65.70;;;;;;5099943;28;20063;-69
2022/12/09 09:12:26;;;;;;;3.00;2.50;;;14.10;65.80;;;;;;5122741;28;20016;-69
2022/12/09 09:14:53;;;;;;;3.55;2.72;;;14.10;65.70;;;;;;5122631;28;20031;-69
2022/12/09 09:17:22;;;;;;;3.67;2.70;;;14.10;65.70;;;;;;5122602;28;20015;-69
2022/12/09 09:19:48;;;;;;;2.72;2.42;;;14.10;65.70;;;;;;5122556;28;20184;-69
2022/12/09 09:22:15;;;;;;;2.63;1.90;;;14.10;65.70;;;;;;5122522;28;20118;-69
2022/12/09 09:24:41;;;;;;;2.92;2.45;;;14.10;65.70;;;;;;5122513;28;20011;-70
2022/12/09 09:27:07;;;;;;;3.53;2.42;;;14.10;65.80;;;;;;5122468;28;20043;-69
2022/12/09 09:29:33;;;;;;;2.55;2.30;;;14.10;65.90;;;;;;5122464;28;20015;-69
2022/12/09 09:31:59;;;;;;;4.30;2.60;;;14.10;65.90;;;;;;5122547;28;20019;-71
2022/12/09 09:34:26;;;;;;;3.50;2.45;;;14.00;66.00;;;;;;5122467;28;20020;-72
2022/12/09 09:36:53;;;;;;;2.83;2.17;;;14.00;66.00;;;;;;5120412;28;20047;-69
2022/12/09 09:39:20;;;;;;;3.92;2.65;;;14.10;66.00;;;;;;5106425;28;20024;-68
2022/12/09 09:41:54;;;;;;;5.32;2.60;;;14.10;66.30;;;;;;5102351;28;20082;-66
2022/12/09 09:44:42;;;;;;;3.35;2.67;;;14.10;66.30;;;;;;5112796;28;20020;-68
2022/12/09 09:47:31;;;;;;;5.18;2.65;;;14.10;66.60;;;;;;5083382;28;20356;-67
2022/12/09 09:50:07;;;;;;;9.80;2.75;;;14.10;66.70;;;;;;5111792;28;20319;-67
2022/12/09 09:52:36;;;;;;;7.80;2.33;;;14.10;66.80;;;;;;5115559;28;20090;-69
2022/12/09 09:55:11;;;;;;;;;;;14.10;66.90;;;;;;5102015;28;20208;-68
2022/12/09 09:57:57;;;;;;;5.07;2.55;;;14.20;66.60;;;;;;5119739;28;20106;-69
2022/12/09 10:00:32;;;;;;;6.50;2.72;;;14.20;66.80;;;;;;5122172;28;20564;-69
2022/12/09 10:03:12;;;;;;;3.58;2.60;;;14.30;66.80;;;;;;5124908;27;20086;-71
2022/12/09 10:05:51;;;;;;;7.15;2.92;;;14.40;66.90;;;;;;5124888;28;20755;-70
2022/12/09 10:08:25;;;;;;;14.57;2.63;;;14.40;67.00;;;;;;5112957;28;20011;-69
2022/12/09 10:11:12;;;;;;;6.38;2.80;;;14.40;67.10;;;;;;5124459;27;20051;-69
2022/12/09 10:13:55;;;;;;;3.47;2.40;;;14.50;67.40;;;;;;5119492;28;20034;-68
2022/12/09 10:16:52;;;;;;;6.00;2.63;;;14.50;67.30;;;;;;5106034;28;20026;-68
2022/12/09 10:19:40;;;;;;;3.35;2.20;;;14.50;67.20;;;;;;5114970;28;20066;-71
2022/12/09 10:22:24;;;;;;;4.45;2.22;;;14.60;67.20;;;;;;5125865;28;20200;-69
2022/12/09 10:24:55;;;;;;;3.30;2.00;;;14.60;67.30;;;;;;5122538;28;20078;-69
2022/12/09 10:27:44;;;;;;;5.32;2.63;;;14.60;67.50;;;;;;5119432;28;20015;-70
2022/12/09 10:30:15;;;;;;;3.97;2.38;;;14.70;67.30;;;;;;5125236;28;20016;-72
2022/12/09 10:32:41;;;;;;;3.60;2.40;;;14.70;67.50;;;;;;5125729;28;20020;-68
2022/12/09 10:35:22;;;;;;;3.70;2.40;;;14.70;67.60;;;;;;5124364;27;20023;-70
2022/12/09 10:37:51;;;;;;;3.65;2.17;;;14.70;67.60;;;;;;5116501;28;20017;-71
2022/12/09 10:40:38;;;;;;;5.03;3.88;;;14.70;67.60;;;;;;5124550;28;20311;-73
2022/12/09 10:43:37;;;;;;;10.47;3.17;;;14.70;66.90;;;;;;5123495;28;20031;-70
2022/12/09 10:46:10;;;;;;;16.35;4.03;;;14.70;67.70;;;;;;5125057;28;20236;-70
2022/12/09 10:48:45;;;;;;;5.55;2.60;;;14.70;68.10;;;;;;5124626;28;20026;-70
2022/12/09 10:51:25;;;;;;;6.68;2.65;;;14.70;68.30;;;;;;5113518;28;20023;-70
2022/12/09 10:54:03;;;;;;;4.60;2.75;;;14.70;68.20;;;;;;5103690;28;20023;-72
2022/12/09 10:56:28;;;;;;;6.07;2.72;;;14.70;68.20;;;;;;5095382;28;20038;-71
2022/12/09 10:59:07;;;;;;;7.50;2.58;;;14.70;68.60;;;;;;5106390;28;20323;-71
2022/12/09 11:01:53;;;;;;;10.75;2.80;;;14.80;68.70;;;;;;5113625;28;20042;-69
2022/12/09 11:04:25;;;;;;;5.30;2.55;;;14.80;68.50;;;;;;5122596;27;20011;-71
2022/12/09 11:06:55;;;;;;;8.27;2.95;;;14.80;68.40;;;;;;5122444;28;20031;-72
2022/12/09 11:09:31;;;;;;;4.28;2.72;;;14.80;68.40;;;;;;5108083;27;20068;-72
2022/12/09 11:11:58;;;;;;;7.28;3.55;;;14.80;68.60;;;;;;5120577;28;20023;-70
2022/12/09 11:14:29;;;;;;;7.85;2.50;;;14.80;68.70;;;;;;5123601;28;20019;-72
2022/12/09 11:16:59;;;;;;;9.63;3.03;;;14.80;68.50;;;;;;5124209;28;20315;-74
2022/12/09 11:19:36;;;;;;;6.13;2.72;;;14.80;68.60;;;;;;5124953;28;20031;-74
2022/12/09 11:22:34;;;;;;;7.07;2.63;;;14.90;68.50;;;;;;5124694;28;20203;-72
2022/12/09 11:25:21;;;;;;;10.95;3.92;;;14.80;68.60;;;;;;5124255;28;20362;-71
2022/12/09 11:27:47;;;;;;;20.20;3.83;;;14.80;68.60;;;;;;5089826;28;20374;-72
2022/12/09 11:30:17;;;;;;;12.90;3.70;;;14.80;68.70;;;;;;5117931;27;20012;-74
2022/12/09 11:33:07;;;;;;;6.68;2.85;;;14.90;69.00;;;;;;5122521;27;20034;-72
2022/12/09 11:35:52;;;;;;;10.27;3.28;;;14.90;69.00;;;;;;5124087;28;20015;-73
2022/12/09 11:38:37;;;;;;;5.75;2.80;;;14.90;69.10;;;;;;5124458;28;20016;-73
2022/12/09 11:41:06;;;;;;;10.68;2.95;;;14.90;69.10;;;;;;5123843;28;20257;-73
2022/12/09 11:43:34;;;;;;;16.42;4.05;;;15.00;69.40;;;;;;5124134;28;20062;-72
2022/12/09 12:08:43;;;;;;;13.20;3.05;;;14.80;69.00;;;;;;5161177;27;20175;-70
2022/12/09 12:30:39;;;;;;;7.85;2.83;;;14.80;68.50;;;;;;5140811;27;20624;-75
2022/12/09 12:33:26;;;;;;;11.55;3.60;;;15.20;67.60;;;;;;5140587;28;20020;-75
2022/12/09 12:36:01;;;;;;;8.57;3.13;;;15.10;68.20;;;;;;5140404;28;20019;-74
2022/12/09 12:38:54;;;;;;;8.20;3.00;;;15.00;68.60;;;;;;5140441;28;20047;-74
2022/12/09 12:41:23;;;;;;;13.35;2.88;;;15.00;68.60;;;;;;5121814;28;20018;-74
2022/12/09 12:46:49;;;;;;;11.00;3.45;;;15.10;68.60;;;;;;5140410;28;20098;-74
2022/12/09 12:49:41;;;;;;;10.23;2.90;;;15.10;68.80;;;;;;5131741;27;20082;-71
2022/12/09 12:52:45;;;;;;;20.05;4.18;;;15.10;68.60;;;;;;5139290;28;20318;-74
2022/12/09 12:55:16;;;;;;;13.35;2.70;;;15.10;69.00;;;;;;5140383;28;20196;-72
2022/12/09 12:57:45;;;;;;;10.50;3.22;;;15.10;69.20;;;;;;5140252;28;20051;-72
2022/12/09 14:30:14;;;;;;;8.10;3.40;;;14.70;66.40;;;;;;5128285;27;20373;-72
2022/12/09 14:32:49;;;;;;;7.47;2.88;;;14.90;66.30;;;;;;5099802;28;20048;-71
2022/12/09 14:35:19;;;;;;;10.18;3.90;;;14.90;67.00;;;;;;5115339;28;20116;-71
2022/12/09 14:38:17;;;;;;;12.20;3.97;;;14.90;67.30;;;;;;5119427;28;20380;-71
2022/12/09 14:41:44;;;;;;;9.63;3.30;;;15.00;67.20;;;;;;5119093;28;20311;-72
2022/12/09 14:44:46;;;;;;;9.10;3.45;;;15.00;67.40;;;;;;5078121;28;20290;-71
2022/12/09 14:47:12;;;;;;;11.88;3.38;;;15.10;67.50;;;;;;5119496;28;20114;-70
2022/12/09 14:49:38;;;;;;;23.27;5.57;;;15.10;67.70;;;;;;5118811;28;20030;-70
2022/12/09 14:52:30;;;;;;;10.95;3.50;;;15.20;67.70;;;;;;5119318;28;20023;-70
2022/12/09 14:55:00;;;;;;;9.45;3.10;;;15.20;67.70;;;;;;5116335;28;20055;-71
2022/12/09 14:57:42;;;;;;;10.95;3.10;;;15.20;67.80;;;;;;5098772;28;20016;-70
2022/12/09 15:00:31;;;;;;;9.63;3.55;;;15.30;67.60;;;;;;5099239;28;20040;-72
2022/12/09 15:02:58;;;;;;;4.80;2.83;;;15.30;67.40;;;;;;5097911;28;20020;-71
2022/12/09 15:05:24;;;;;;;7.43;3.10;;;15.40;67.60;;;;;;5098378;28;20019;-72
2022/12/09 15:07:50;;;;;;;7.75;3.60;;;15.40;67.50;;;;;;5098684;28;20083;-72
2022/12/09 15:10:37;;;;;;;12.77;3.20;;;15.40;67.50;;;;;;5105944;28;20219;-72
2022/12/09 15:13:04;;;;;;;7.13;3.13;;;15.40;67.40;;;;;;5119367;28;20024;-72
2022/12/09 15:15:35;;;;;;;6.70;3.13;;;15.40;67.50;;;;;;5119236;28;20026;-72
2022/12/09 15:18:15;;;;;;;28.40;6.65;;;15.40;67.50;;;;;;5100528;28;20205;-71
2022/12/09 15:20:46;;;;;;;23.90;4.10;;;15.40;65.60;;;;;;5122458;28;20053;-76